sensor_id;sensor_type;location;lat;lon;timestamp;P1;durP1;ratioP1;P2;durP2;ratioP2
4676;SDS011;2352;48.180;11.478;2023-02-05T00:01:06;14.13;;;13.00;;
4676;SDS011;2352;48.180;11.478;2023-02-05T00:04:09;14.03;;;12.83;;
4676;SDS011;2352;48.180;11.478;2023-02-05T00:07:12;13.20;;;11.90;;
4676;SDS011;2352;48.180;11.478;2023-02-05T00:10:16;13.47;;;12.23;;
4676;SDS011;2352;48.180;11.478;2023-02-05T00:13:19;12.37;;;11.23;;
4676;SDS011;2352;48.180;11.478;2023-02-05T00:16:23;12.10;;;11.00;;
4676;SDS011;2352;48.180;11.478;2023-02-05T00:19:26;11.83;;;10.73;;
4676;SDS011;2352;48.180;11.478;2023-02-05T00:22:29;11.83;;;10.83;;
4676;SDS011;2352;48.180;11.478;2023-02-05T00:25:33;12.67;;;11.33;;
4676;SDS011;2352;48.180;11.478;2023-02-05T00:28:36;10.70;;;9.80;;
4676;SDS011;2352;48.180;11.478;2023-02-05T00:31:39;11.50;;;10.27;;
4676;SDS011;2352;48.180;11.478;2023-02-05T00:34:42;10.70;;;9.70;;
4676;SDS011;2352;48.180;11.478;2023-02-05T00:37:45;10.30;;;9.50;;
4676;SDS011;2352;48.180;11.478;2023-02-05T00:40:49;11.53;;;10.63;;
4676;SDS011;2352;48.180;11.478;2023-02-05T00:43:52;11.27;;;10.17;;
4676;SDS011;2352;48.180;11.478;2023-02-05T00:46:55;11.67;;;10.60;;
4676;SDS011;2352;48.180;11.478;2023-02-05T00:49:58;11.67;;;10.57;;
4676;SDS011;2352;48.180;11.478;2023-02-05T00:53:01;11.93;;;10.83;;
4676;SDS011;2352;48.180;11.478;2023-02-05T00:56:05;13.17;;;11.63;;
4676;SDS011;2352;48.180;11.478;2023-02-05T00:59:09;13.17;;;11.87;;
4676;SDS011;2352;48.180;11.478;2023-02-05T01:02:12;13.03;;;11.70;;
4676;SDS011;2352;48.180;11.478;2023-02-05T01:05:15;13.40;;;12.00;;
4676;SDS011;2352;48.180;11.478;2023-02-05T01:08:17;11.57;;;10.57;;
4676;SDS011;2352;48.180;11.478;2023-02-05T01:11:22;11.97;;;10.87;;
4676;SDS011;2352;48.180;11.478;2023-02-05T01:14:24;10.80;;;9.90;;
4676;SDS011;2352;48.180;11.478;2023-02-05T01:17:27;12.43;;;11.10;;
4676;SDS011;2352;48.180;11.478;2023-02-05T01:20:30;12.40;;;11.30;;
4676;SDS011;2352;48.180;11.478;2023-02-05T01:23:33;13.40;;;12.03;;
4676;SDS011;2352;48.180;11.478;2023-02-05T01:26:37;11.67;;;10.77;;
4676;SDS011;2352;48.180;11.478;2023-02-05T01:29:40;14.00;;;12.53;;
4676;SDS011;2352;48.180;11.478;2023-02-05T01:32:43;13.23;;;11.93;;
4676;SDS011;2352;48.180;11.478;2023-02-05T01:35:47;13.33;;;12.23;;
4676;SDS011;2352;48.180;11.478;2023-02-05T01:38:50;13.80;;;12.50;;
4676;SDS011;2352;48.180;11.478;2023-02-05T01:41:55;12.13;;;10.77;;
4676;SDS011;2352;48.180;11.478;2023-02-05T01:48:41;12.37;;;11.10;;
4676;SDS011;2352;48.180;11.478;2023-02-05T01:51:48;12.93;;;11.73;;
4676;SDS011;2352;48.180;11.478;2023-02-05T01:54:51;13.03;;;11.83;;
4676;SDS011;2352;48.180;11.478;2023-02-05T01:57:56;12.03;;;10.93;;
4676;SDS011;2352;48.180;11.478;2023-02-05T02:01:02;12.60;;;11.37;;
4676;SDS011;2352;48.180;11.478;2023-02-05T02:04:05;12.30;;;11.20;;
4676;SDS011;2352;48.180;11.478;2023-02-05T02:07:12;11.73;;;10.70;;
4676;SDS011;2352;48.180;11.478;2023-02-05T02:10:16;12.73;;;11.47;;
4676;SDS011;2352;48.180;11.478;2023-02-05T02:13:22;12.17;;;10.87;;
4676;SDS011;2352;48.180;11.478;2023-02-05T02:16:26;11.17;;;10.07;;
4676;SDS011;2352;48.180;11.478;2023-02-05T02:19:31;11.73;;;10.73;;
4676;SDS011;2352;48.180;11.478;2023-02-05T02:22:46;11.37;;;10.37;;
4676;SDS011;2352;48.180;11.478;2023-02-05T02:26:15;11.53;;;10.53;;
4676;SDS011;2352;48.180;11.478;2023-02-05T02:29:36;12.13;;;10.40;;
4676;SDS011;2352;48.180;11.478;2023-02-05T02:32:45;11.37;;;10.47;;
4676;SDS011;2352;48.180;11.478;2023-02-05T02:35:53;10.87;;;9.93;;
4676;SDS011;2352;48.180;11.478;2023-02-05T02:39:04;12.53;;;11.43;;
4676;SDS011;2352;48.180;11.478;2023-02-05T02:42:14;10.57;;;9.77;;
4676;SDS011;2352;48.180;11.478;2023-02-05T02:45:20;11.57;;;10.50;;
4676;SDS011;2352;48.180;11.478;2023-02-05T02:48:27;10.73;;;9.77;;
4676;SDS011;2352;48.180;11.478;2023-02-05T02:51:33;11.20;;;10.20;;
4676;SDS011;2352;48.180;11.478;2023-02-05T02:54:40;11.90;;;10.87;;
4676;SDS011;2352;48.180;11.478;2023-02-05T02:57:46;11.87;;;10.87;;
4676;SDS011;2352;48.180;11.478;2023-02-05T03:00:53;11.47;;;10.47;;
4676;SDS011;2352;48.180;11.478;2023-02-05T03:03:58;11.80;;;10.60;;
4676;SDS011;2352;48.180;11.478;2023-02-05T03:07:04;12.17;;;11.07;;
4676;SDS011;2352;48.180;11.478;2023-02-05T03:10:15;13.00;;;11.53;;
4676;SDS011;2352;48.180;11.478;2023-02-05T03:13:23;12.20;;;11.00;;
4676;SDS011;2352;48.180;11.478;2023-02-05T03:16:28;11.17;;;10.10;;
4676;SDS011;2352;48.180;11.478;2023-02-05T03:19:31;11.43;;;10.37;;
4676;SDS011;2352;48.180;11.478;2023-02-05T03:22:34;12.43;;;11.00;;
4676;SDS011;2352;48.180;11.478;2023-02-05T03:25:37;10.97;;;10.00;;
4676;SDS011;2352;48.180;11.478;2023-02-05T03:28:40;14.10;;;12.77;;
4676;SDS011;2352;48.180;11.478;2023-02-05T03:31:46;11.43;;;10.33;;
4676;SDS011;2352;48.180;11.478;2023-02-05T03:35:01;11.87;;;10.77;;
4676;SDS011;2352;48.180;11.478;2023-02-05T03:38:19;11.83;;;10.93;;
4676;SDS011;2352;48.180;11.478;2023-02-05T03:41:32;10.23;;;9.40;;
4676;SDS011;2352;48.180;11.478;2023-02-05T03:45:03;11.23;;;10.23;;
4676;SDS011;2352;48.180;11.478;2023-02-05T03:48:36;11.57;;;10.50;;
4676;SDS011;2352;48.180;11.478;2023-02-05T03:51:49;12.53;;;11.30;;
4676;SDS011;2352;48.180;11.478;2023-02-05T03:54:58;11.90;;;10.70;;
4676;SDS011;2352;48.180;11.478;2023-02-05T03:58:09;10.23;;;9.43;;
4676;SDS011;2352;48.180;11.478;2023-02-05T04:01:16;11.90;;;10.90;;
4676;SDS011;2352;48.180;11.478;2023-02-05T04:04:21;12.27;;;11.13;;
4676;SDS011;2352;48.180;11.478;2023-02-05T04:07:24;11.17;;;10.07;;
4676;SDS011;2352;48.180;11.478;2023-02-05T04:10:27;11.67;;;10.37;;
4676;SDS011;2352;48.180;11.478;2023-02-05T04:13:30;11.37;;;10.17;;
4676;SDS011;2352;48.180;11.478;2023-02-05T04:16:33;11.77;;;10.70;;
4676;SDS011;2352;48.180;11.478;2023-02-05T04:19:37;11.67;;;10.67;;
4676;SDS011;2352;48.180;11.478;2023-02-05T04:22:41;12.30;;;10.97;;
4676;SDS011;2352;48.180;11.478;2023-02-05T04:25:44;12.10;;;11.10;;
4676;SDS011;2352;48.180;11.478;2023-02-05T04:28:47;12.63;;;11.53;;
4676;SDS011;2352;48.180;11.478;2023-02-05T04:31:50;12.77;;;11.63;;
4676;SDS011;2352;48.180;11.478;2023-02-05T04:34:54;12.73;;;11.33;;
4676;SDS011;2352;48.180;11.478;2023-02-05T04:37:57;12.90;;;11.70;;
4676;SDS011;2352;48.180;11.478;2023-02-05T04:41:00;11.90;;;10.83;;
4676;SDS011;2352;48.180;11.478;2023-02-05T04:44:02;12.37;;;11.37;;
4676;SDS011;2352;48.180;11.478;2023-02-05T04:47:06;11.80;;;10.67;;
4676;SDS011;2352;48.180;11.478;2023-02-05T04:50:10;11.17;;;10.07;;
4676;SDS011;2352;48.180;11.478;2023-02-05T04:53:13;12.27;;;11.20;;
4676;SDS011;2352;48.180;11.478;2023-02-05T04:56:16;11.57;;;10.67;;
4676;SDS011;2352;48.180;11.478;2023-02-05T04:59:19;11.93;;;11.03;;
4676;SDS011;2352;48.180;11.478;2023-02-05T05:02:22;10.97;;;10.10;;
4676;SDS011;2352;48.180;11.478;2023-02-05T05:05:26;11.77;;;10.67;;
4676;SDS011;2352;48.180;11.478;2023-02-05T05:08:29;11.83;;;10.90;;
4676;SDS011;2352;48.180;11.478;2023-02-05T05:11:32;11.80;;;10.77;;
4676;SDS011;2352;48.180;11.478;2023-02-05T05:14:35;10.80;;;9.90;;
4676;SDS011;2352;48.180;11.478;2023-02-05T05:17:38;11.83;;;10.70;;
4676;SDS011;2352;48.180;11.478;2023-02-05T05:20:43;11.27;;;10.27;;
4676;SDS011;2352;48.180;11.478;2023-02-05T05:23:46;11.27;;;10.10;;
4676;SDS011;2352;48.180;11.478;2023-02-05T05:26:48;10.73;;;9.67;;
4676;SDS011;2352;48.180;11.478;2023-02-05T05:29:51;12.73;;;10.43;;
4676;SDS011;2352;48.180;11.478;2023-02-05T05:32:54;11.17;;;10.27;;
4676;SDS011;2352;48.180;11.478;2023-02-05T05:35:58;11.43;;;10.43;;
4676;SDS011;2352;48.180;11.478;2023-02-05T05:39:01;11.70;;;10.57;;
4676;SDS011;2352;48.180;11.478;2023-02-05T05:42:18;12.00;;;10.90;;
4676;SDS011;2352;48.180;11.478;2023-02-05T05:45:38;11.00;;;10.00;;
4676;SDS011;2352;48.180;11.478;2023-02-05T05:48:41;10.80;;;9.73;;
4676;SDS011;2352;48.180;11.478;2023-02-05T05:51:45;11.53;;;10.43;;
4676;SDS011;2352;48.180;11.478;2023-02-05T05:54:48;12.17;;;10.93;;
4676;SDS011;2352;48.180;11.478;2023-02-05T05:57:51;10.77;;;9.97;;
4676;SDS011;2352;48.180;11.478;2023-02-05T06:00:54;10.73;;;9.93;;
4676;SDS011;2352;48.180;11.478;2023-02-05T06:03:57;11.63;;;10.73;;
4676;SDS011;2352;48.180;11.478;2023-02-05T06:07:03;10.60;;;9.70;;
4676;SDS011;2352;48.180;11.478;2023-02-05T06:10:06;11.23;;;10.10;;
4676;SDS011;2352;48.180;11.478;2023-02-05T06:13:09;11.20;;;10.37;;
4676;SDS011;2352;48.180;11.478;2023-02-05T06:16:12;12.53;;;11.30;;
4676;SDS011;2352;48.180;11.478;2023-02-05T06:19:15;11.50;;;10.47;;
4676;SDS011;2352;48.180;11.478;2023-02-05T06:22:19;12.00;;;10.97;;
4676;SDS011;2352;48.180;11.478;2023-02-05T06:25:22;11.50;;;10.40;;
4676;SDS011;2352;48.180;11.478;2023-02-05T06:28:25;14.00;;;12.50;;
4676;SDS011;2352;48.180;11.478;2023-02-05T06:31:28;13.23;;;11.83;;
4676;SDS011;2352;48.180;11.478;2023-02-05T06:34:31;15.43;;;14.07;;
4676;SDS011;2352;48.180;11.478;2023-02-05T06:37:35;18.67;;;16.70;;
4676;SDS011;2352;48.180;11.478;2023-02-05T06:40:47;17.40;;;15.73;;
4676;SDS011;2352;48.180;11.478;2023-02-05T06:43:50;20.53;;;16.53;;
4676;SDS011;2352;48.180;11.478;2023-02-05T06:46:53;18.47;;;16.20;;
4676;SDS011;2352;48.180;11.478;2023-02-05T06:49:56;18.47;;;14.43;;
4676;SDS011;2352;48.180;11.478;2023-02-05T06:53:00;16.17;;;14.63;;
4676;SDS011;2352;48.180;11.478;2023-02-05T06:56:03;12.87;;;11.87;;
4676;SDS011;2352;48.180;11.478;2023-02-05T06:59:07;15.40;;;13.70;;
4676;SDS011;2352;48.180;11.478;2023-02-05T07:02:10;14.90;;;13.60;;
4676;SDS011;2352;48.180;11.478;2023-02-05T07:05:15;14.30;;;13.03;;
4676;SDS011;2352;48.180;11.478;2023-02-05T07:08:19;15.90;;;13.03;;
4676;SDS011;2352;48.180;11.478;2023-02-05T07:11:22;13.37;;;12.17;;
4676;SDS011;2352;48.180;11.478;2023-02-05T07:14:25;12.57;;;11.47;;
4676;SDS011;2352;48.180;11.478;2023-02-05T07:17:27;12.43;;;11.20;;
4676;SDS011;2352;48.180;11.478;2023-02-05T07:20:30;12.93;;;11.87;;
4676;SDS011;2352;48.180;11.478;2023-02-05T07:23:35;13.20;;;11.83;;
4676;SDS011;2352;48.180;11.478;2023-02-05T07:26:38;13.47;;;12.33;;
4676;SDS011;2352;48.180;11.478;2023-02-05T07:29:43;11.80;;;10.80;;
4676;SDS011;2352;48.180;11.478;2023-02-05T07:32:45;13.00;;;11.93;;
4676;SDS011;2352;48.180;11.478;2023-02-05T07:35:48;13.33;;;12.23;;
4676;SDS011;2352;48.180;11.478;2023-02-05T07:38:52;12.60;;;11.60;;
4676;SDS011;2352;48.180;11.478;2023-02-05T07:41:55;11.80;;;10.83;;
4676;SDS011;2352;48.180;11.478;2023-02-05T07:44:58;12.77;;;11.60;;
4676;SDS011;2352;48.180;11.478;2023-02-05T07:48:01;11.43;;;10.53;;
4676;SDS011;2352;48.180;11.478;2023-02-05T07:51:04;10.87;;;9.90;;
4676;SDS011;2352;48.180;11.478;2023-02-05T07:54:09;12.10;;;11.03;;
4676;SDS011;2352;48.180;11.478;2023-02-05T07:57:14;11.37;;;10.43;;
4676;SDS011;2352;48.180;11.478;2023-02-05T08:00:17;11.03;;;10.13;;
4676;SDS011;2352;48.180;11.478;2023-02-05T08:03:20;10.60;;;9.60;;
4676;SDS011;2352;48.180;11.478;2023-02-05T08:06:23;9.83;;;9.10;;
4676;SDS011;2352;48.180;11.478;2023-02-05T08:09:28;8.53;;;7.83;;
4676;SDS011;2352;48.180;11.478;2023-02-05T08:12:31;9.00;;;8.30;;
4676;SDS011;2352;48.180;11.478;2023-02-05T08:15:36;9.63;;;8.60;;
4676;SDS011;2352;48.180;11.478;2023-02-05T08:18:39;10.70;;;8.57;;
4676;SDS011;2352;48.180;11.478;2023-02-05T08:21:42;8.60;;;7.80;;
4676;SDS011;2352;48.180;11.478;2023-02-05T08:24:47;8.03;;;7.43;;
4676;SDS011;2352;48.180;11.478;2023-02-05T08:27:49;6.13;;;5.70;;
4676;SDS011;2352;48.180;11.478;2023-02-05T08:30:52;6.77;;;6.27;;
4676;SDS011;2352;48.180;11.478;2023-02-05T08:33:56;6.30;;;5.80;;
4676;SDS011;2352;48.180;11.478;2023-02-05T08:37:00;6.37;;;5.87;;
4676;SDS011;2352;48.180;11.478;2023-02-05T08:40:05;6.07;;;5.67;;
4676;SDS011;2352;48.180;11.478;2023-02-05T08:43:08;5.93;;;5.53;;
4676;SDS011;2352;48.180;11.478;2023-02-05T08:46:12;5.43;;;5.13;;
4676;SDS011;2352;48.180;11.478;2023-02-05T08:49:16;5.17;;;4.77;;
4676;SDS011;2352;48.180;11.478;2023-02-05T08:52:19;7.53;;;7.03;;
4676;SDS011;2352;48.180;11.478;2023-02-05T08:55:24;6.73;;;6.33;;
4676;SDS011;2352;48.180;11.478;2023-02-05T08:58:27;5.77;;;5.37;;
4676;SDS011;2352;48.180;11.478;2023-02-05T09:01:30;5.90;;;5.40;;
4676;SDS011;2352;48.180;11.478;2023-02-05T09:04:33;6.30;;;5.90;;
4676;SDS011;2352;48.180;11.478;2023-02-05T09:07:36;5.93;;;5.53;;
4676;SDS011;2352;48.180;11.478;2023-02-05T09:10:43;6.60;;;6.13;;
4676;SDS011;2352;48.180;11.478;2023-02-05T09:13:46;6.27;;;5.77;;
4676;SDS011;2352;48.180;11.478;2023-02-05T09:16:49;6.00;;;5.60;;
4676;SDS011;2352;48.180;11.478;2023-02-05T09:19:52;6.33;;;5.83;;
4676;SDS011;2352;48.180;11.478;2023-02-05T09:22:55;6.63;;;6.13;;
4676;SDS011;2352;48.180;11.478;2023-02-05T09:25:59;7.40;;;6.80;;
4676;SDS011;2352;48.180;11.478;2023-02-05T09:29:02;5.57;;;5.17;;
4676;SDS011;2352;48.180;11.478;2023-02-05T09:32:05;5.20;;;4.90;;
4676;SDS011;2352;48.180;11.478;2023-02-05T09:35:08;5.13;;;4.80;;
4676;SDS011;2352;48.180;11.478;2023-02-05T09:38:11;5.70;;;5.20;;
4676;SDS011;2352;48.180;11.478;2023-02-05T09:41:19;5.13;;;4.70;;
4676;SDS011;2352;48.180;11.478;2023-02-05T09:44:32;6.30;;;5.83;;
4676;SDS011;2352;48.180;11.478;2023-02-05T09:47:48;6.23;;;5.80;;
4676;SDS011;2352;48.180;11.478;2023-02-05T09:51:01;5.77;;;5.27;;
4676;SDS011;2352;48.180;11.478;2023-02-05T09:54:15;7.97;;;7.40;;
4676;SDS011;2352;48.180;11.478;2023-02-05T09:57:26;6.97;;;6.40;;
4676;SDS011;2352;48.180;11.478;2023-02-05T10:00:36;6.87;;;6.27;;
4676;SDS011;2352;48.180;11.478;2023-02-05T10:03:47;5.77;;;5.37;;
4676;SDS011;2352;48.180;11.478;2023-02-05T10:10:23;5.50;;;5.10;;
4676;SDS011;2352;48.180;11.478;2023-02-05T10:13:29;5.57;;;5.17;;
4676;SDS011;2352;48.180;11.478;2023-02-05T10:16:39;5.60;;;5.20;;
4676;SDS011;2352;48.180;11.478;2023-02-05T10:20:02;5.00;;;4.57;;
4676;SDS011;2352;48.180;11.478;2023-02-05T10:23:31;5.50;;;4.00;;
4676;SDS011;2352;48.180;11.478;2023-02-05T10:26:56;4.63;;;4.23;;
4676;SDS011;2352;48.180;11.478;2023-02-05T10:30:11;7.40;;;5.87;;
4676;SDS011;2352;48.180;11.478;2023-02-05T10:33:22;6.00;;;5.40;;
4676;SDS011;2352;48.180;11.478;2023-02-05T10:36:36;4.60;;;3.80;;
4676;SDS011;2352;48.180;11.478;2023-02-05T10:39:39;3.50;;;3.03;;
4676;SDS011;2352;48.180;11.478;2023-02-05T10:42:43;7.70;;;3.37;;
4676;SDS011;2352;48.180;11.478;2023-02-05T10:45:52;9.53;;;4.93;;
4676;SDS011;2352;48.180;11.478;2023-02-05T10:48:57;5.53;;;3.67;;
4676;SDS011;2352;48.180;11.478;2023-02-05T10:52:08;2.90;;;2.60;;
4676;SDS011;2352;48.180;11.478;2023-02-05T10:55:12;4.90;;;3.80;;
4676;SDS011;2352;48.180;11.478;2023-02-05T10:58:27;14.00;;;6.80;;
4676;SDS011;2352;48.180;11.478;2023-02-05T11:01:40;8.33;;;4.87;;
4676;SDS011;2352;48.180;11.478;2023-02-05T11:04:46;7.03;;;4.23;;
4676;SDS011;2352;48.180;11.478;2023-02-05T11:07:53;5.83;;;4.03;;
4676;SDS011;2352;48.180;11.478;2023-02-05T11:10:56;9.70;;;4.10;;
4676;SDS011;2352;48.180;11.478;2023-02-05T11:14:00;8.43;;;4.43;;
4676;SDS011;2352;48.180;11.478;2023-02-05T11:17:09;4.80;;;4.30;;
4676;SDS011;2352;48.180;11.478;2023-02-05T11:20:29;3.37;;;3.03;;
4676;SDS011;2352;48.180;11.478;2023-02-05T11:23:35;6.93;;;3.80;;
4676;SDS011;2352;48.180;11.478;2023-02-05T11:26:40;4.53;;;3.60;;
4676;SDS011;2352;48.180;11.478;2023-02-05T11:29:45;6.13;;;2.57;;
4676;SDS011;2352;48.180;11.478;2023-02-05T11:32:49;5.73;;;2.53;;
4676;SDS011;2352;48.180;11.478;2023-02-05T11:35:53;4.73;;;3.10;;
4676;SDS011;2352;48.180;11.478;2023-02-05T11:38:58;4.43;;;2.80;;
4676;SDS011;2352;48.180;11.478;2023-02-05T11:42:06;3.70;;;3.40;;
4676;SDS011;2352;48.180;11.478;2023-02-05T11:45:14;7.80;;;3.73;;
4676;SDS011;2352;48.180;11.478;2023-02-05T11:48:23;4.93;;;4.23;;
4676;SDS011;2352;48.180;11.478;2023-02-05T11:51:37;4.93;;;3.47;;
4676;SDS011;2352;48.180;11.478;2023-02-05T11:55:21;6.57;;;3.53;;
4676;SDS011;2352;48.180;11.478;2023-02-05T11:58:27;4.43;;;4.03;;
4676;SDS011;2352;48.180;11.478;2023-02-05T12:01:37;9.53;;;4.33;;
4676;SDS011;2352;48.180;11.478;2023-02-05T12:04:45;8.17;;;4.70;;
4676;SDS011;2352;48.180;11.478;2023-02-05T12:07:51;8.87;;;4.07;;
4676;SDS011;2352;48.180;11.478;2023-02-05T12:11:01;7.57;;;3.53;;
4676;SDS011;2352;48.180;11.478;2023-02-05T12:14:14;4.67;;;3.20;;
4676;SDS011;2352;48.180;11.478;2023-02-05T12:17:26;6.90;;;3.53;;
4676;SDS011;2352;48.180;11.478;2023-02-05T12:20:37;5.53;;;3.80;;
4676;SDS011;2352;48.180;11.478;2023-02-05T12:23:50;7.23;;;3.70;;
4676;SDS011;2352;48.180;11.478;2023-02-05T12:27:07;3.90;;;3.00;;
4676;SDS011;2352;48.180;11.478;2023-02-05T12:30:22;3.43;;;2.70;;
4676;SDS011;2352;48.180;11.478;2023-02-05T12:37:20;5.30;;;3.77;;
4676;SDS011;2352;48.180;11.478;2023-02-05T12:40:33;6.63;;;3.43;;
4676;SDS011;2352;48.180;11.478;2023-02-05T12:43:43;8.40;;;2.83;;
4676;SDS011;2352;48.180;11.478;2023-02-05T12:46:52;4.27;;;3.40;;
4676;SDS011;2352;48.180;11.478;2023-02-05T12:50:08;10.30;;;3.13;;
4676;SDS011;2352;48.180;11.478;2023-02-05T12:53:29;3.87;;;2.70;;
4676;SDS011;2352;48.180;11.478;2023-02-05T12:56:41;6.40;;;4.53;;
4676;SDS011;2352;48.180;11.478;2023-02-05T12:59:54;4.33;;;3.17;;
4676;SDS011;2352;48.180;11.478;2023-02-05T13:03:03;9.07;;;3.03;;
4676;SDS011;2352;48.180;11.478;2023-02-05T13:06:13;4.70;;;3.87;;
4676;SDS011;2352;48.180;11.478;2023-02-05T13:09:22;8.00;;;3.33;;
4676;SDS011;2352;48.180;11.478;2023-02-05T13:12:31;4.60;;;4.20;;
4676;SDS011;2352;48.180;11.478;2023-02-05T13:15:39;11.53;;;5.03;;
4676;SDS011;2352;48.180;11.478;2023-02-05T13:18:45;6.00;;;4.07;;
4676;SDS011;2352;48.180;11.478;2023-02-05T13:21:54;6.23;;;4.10;;
4676;SDS011;2352;48.180;11.478;2023-02-05T13:25:19;4.37;;;4.00;;
4676;SDS011;2352;48.180;11.478;2023-02-05T13:28:44;4.83;;;4.33;;
4676;SDS011;2352;48.180;11.478;2023-02-05T13:31:50;5.70;;;5.10;;
4676;SDS011;2352;48.180;11.478;2023-02-05T13:35:05;7.17;;;4.13;;
4676;SDS011;2352;48.180;11.478;2023-02-05T13:38:12;8.80;;;4.70;;
4676;SDS011;2352;48.180;11.478;2023-02-05T13:41:33;5.57;;;4.93;;
4676;SDS011;2352;48.180;11.478;2023-02-05T13:44:58;8.53;;;4.77;;
4676;SDS011;2352;48.180;11.478;2023-02-05T13:51:53;7.63;;;5.43;;
4676;SDS011;2352;48.180;11.478;2023-02-05T13:58:56;6.67;;;4.67;;
4676;SDS011;2352;48.180;11.478;2023-02-05T14:02:02;5.77;;;5.27;;
4676;SDS011;2352;48.180;11.478;2023-02-05T14:05:26;9.07;;;4.93;;
4676;SDS011;2352;48.180;11.478;2023-02-05T14:08:31;7.70;;;4.80;;
4676;SDS011;2352;48.180;11.478;2023-02-05T14:11:42;12.90;;;5.80;;
4676;SDS011;2352;48.180;11.478;2023-02-05T14:18:44;6.97;;;5.60;;
4676;SDS011;2352;48.180;11.478;2023-02-05T14:29:17;5.07;;;4.57;;
4676;SDS011;2352;48.180;11.478;2023-02-05T14:32:56;9.47;;;5.47;;
4676;SDS011;2352;48.180;11.478;2023-02-05T14:39:31;11.60;;;5.73;;
4676;SDS011;2352;48.180;11.478;2023-02-05T14:42:35;11.10;;;6.23;;
4676;SDS011;2352;48.180;11.478;2023-02-05T14:45:41;6.07;;;5.33;;
4676;SDS011;2352;48.180;11.478;2023-02-05T14:48:47;7.40;;;6.23;;
4676;SDS011;2352;48.180;11.478;2023-02-05T14:51:51;15.73;;;11.57;;
4676;SDS011;2352;48.180;11.478;2023-02-05T14:55:00;11.50;;;8.00;;
4676;SDS011;2352;48.180;11.478;2023-02-05T14:58:07;14.23;;;10.27;;
4676;SDS011;2352;48.180;11.478;2023-02-05T15:01:28;14.20;;;7.80;;
4676;SDS011;2352;48.180;11.478;2023-02-05T15:04:43;8.43;;;5.70;;
4676;SDS011;2352;48.180;11.478;2023-02-05T15:07:49;9.97;;;6.70;;
4676;SDS011;2352;48.180;11.478;2023-02-05T15:11:04;17.70;;;7.80;;
4676;SDS011;2352;48.180;11.478;2023-02-05T15:14:34;16.10;;;9.90;;
4676;SDS011;2352;48.180;11.478;2023-02-05T15:17:50;13.27;;;7.67;;
4676;SDS011;2352;48.180;11.478;2023-02-05T15:20:54;8.17;;;4.93;;
4676;SDS011;2352;48.180;11.478;2023-02-05T15:23:59;8.33;;;5.13;;
4676;SDS011;2352;48.180;11.478;2023-02-05T15:27:04;16.27;;;7.77;;
4676;SDS011;2352;48.180;11.478;2023-02-05T15:30:15;9.60;;;6.53;;
4676;SDS011;2352;48.180;11.478;2023-02-05T15:33:26;14.80;;;7.50;;
4676;SDS011;2352;48.180;11.478;2023-02-05T15:36:39;8.40;;;5.27;;
4676;SDS011;2352;48.180;11.478;2023-02-05T15:39:47;12.20;;;7.10;;
4676;SDS011;2352;48.180;11.478;2023-02-05T15:42:57;12.70;;;6.33;;
4676;SDS011;2352;48.180;11.478;2023-02-05T15:46:02;9.27;;;5.03;;
4676;SDS011;2352;48.180;11.478;2023-02-05T15:49:07;8.87;;;5.60;;
4676;SDS011;2352;48.180;11.478;2023-02-05T15:52:16;9.07;;;8.00;;
4676;SDS011;2352;48.180;11.478;2023-02-05T15:55:21;7.57;;;6.27;;
4676;SDS011;2352;48.180;11.478;2023-02-05T15:58:26;12.47;;;6.63;;
4676;SDS011;2352;48.180;11.478;2023-02-05T16:01:31;8.27;;;4.80;;
4676;SDS011;2352;48.180;11.478;2023-02-05T16:04:37;6.90;;;6.20;;
4676;SDS011;2352;48.180;11.478;2023-02-05T16:07:42;7.13;;;5.93;;
4676;SDS011;2352;48.180;11.478;2023-02-05T16:10:51;10.30;;;5.63;;
4676;SDS011;2352;48.180;11.478;2023-02-05T16:14:01;12.83;;;6.93;;
4676;SDS011;2352;48.180;11.478;2023-02-05T16:17:09;11.87;;;9.87;;
4676;SDS011;2352;48.180;11.478;2023-02-05T16:20:19;15.20;;;9.63;;
4676;SDS011;2352;48.180;11.478;2023-02-05T16:23:29;13.30;;;9.70;;
4676;SDS011;2352;48.180;11.478;2023-02-05T16:26:38;12.80;;;9.07;;
4676;SDS011;2352;48.180;11.478;2023-02-05T16:29:46;12.17;;;10.90;;
4676;SDS011;2352;48.180;11.478;2023-02-05T16:32:52;13.03;;;10.77;;
4676;SDS011;2352;48.180;11.478;2023-02-05T16:35:57;13.20;;;10.67;;
4676;SDS011;2352;48.180;11.478;2023-02-05T16:39:05;8.60;;;7.63;;
4676;SDS011;2352;48.180;11.478;2023-02-05T16:42:13;10.83;;;8.17;;
4676;SDS011;2352;48.180;11.478;2023-02-05T16:45:28;9.47;;;8.57;;
4676;SDS011;2352;48.180;11.478;2023-02-05T16:48:31;12.67;;;11.43;;
4676;SDS011;2352;48.180;11.478;2023-02-05T16:51:50;14.13;;;11.87;;
4676;SDS011;2352;48.180;11.478;2023-02-05T16:54:57;13.57;;;12.07;;
4676;SDS011;2352;48.180;11.478;2023-02-05T16:58:05;13.53;;;11.43;;
4676;SDS011;2352;48.180;11.478;2023-02-05T17:01:08;15.87;;;12.07;;
4676;SDS011;2352;48.180;11.478;2023-02-05T17:04:16;17.37;;;9.57;;
4676;SDS011;2352;48.180;11.478;2023-02-05T17:07:26;13.40;;;9.57;;
4676;SDS011;2352;48.180;11.478;2023-02-05T17:10:32;10.90;;;9.07;;
4676;SDS011;2352;48.180;11.478;2023-02-05T17:13:49;18.07;;;11.10;;
4676;SDS011;2352;48.180;11.478;2023-02-05T17:16:53;15.33;;;10.47;;
4676;SDS011;2352;48.180;11.478;2023-02-05T17:20:01;13.23;;;9.83;;
4676;SDS011;2352;48.180;11.478;2023-02-05T17:23:06;17.80;;;15.00;;
4676;SDS011;2352;48.180;11.478;2023-02-05T17:26:15;19.73;;;16.47;;
4676;SDS011;2352;48.180;11.478;2023-02-05T17:29:18;15.60;;;13.17;;
4676;SDS011;2352;48.180;11.478;2023-02-05T17:32:21;22.90;;;18.57;;
4676;SDS011;2352;48.180;11.478;2023-02-05T17:35:24;34.20;;;24.57;;
4676;SDS011;2352;48.180;11.478;2023-02-05T17:38:27;20.63;;;18.67;;
4676;SDS011;2352;48.180;11.478;2023-02-05T17:41:35;24.63;;;21.80;;
4676;SDS011;2352;48.180;11.478;2023-02-05T17:44:56;17.20;;;15.37;;
4676;SDS011;2352;48.180;11.478;2023-02-05T17:47:59;42.73;;;24.23;;
4676;SDS011;2352;48.180;11.478;2023-02-05T17:51:02;32.53;;;19.17;;
4676;SDS011;2352;48.180;11.478;2023-02-05T17:54:05;21.93;;;16.43;;
4676;SDS011;2352;48.180;11.478;2023-02-05T17:57:15;23.90;;;17.40;;
4676;SDS011;2352;48.180;11.478;2023-02-05T18:00:20;18.87;;;17.03;;
4676;SDS011;2352;48.180;11.478;2023-02-05T18:03:24;30.53;;;23.53;;
4676;SDS011;2352;48.180;11.478;2023-02-05T18:06:28;31.67;;;24.87;;
4676;SDS011;2352;48.180;11.478;2023-02-05T18:09:31;23.53;;;20.27;;
4676;SDS011;2352;48.180;11.478;2023-02-05T18:12:35;18.33;;;16.27;;
4676;SDS011;2352;48.180;11.478;2023-02-05T18:15:38;15.97;;;14.47;;
4676;SDS011;2352;48.180;11.478;2023-02-05T18:18:41;16.03;;;13.80;;
4676;SDS011;2352;48.180;11.478;2023-02-05T18:21:44;15.43;;;12.40;;
4676;SDS011;2352;48.180;11.478;2023-02-05T18:24:48;15.27;;;13.07;;
4676;SDS011;2352;48.180;11.478;2023-02-05T18:27:52;14.73;;;13.37;;
4676;SDS011;2352;48.180;11.478;2023-02-05T18:30:57;16.53;;;13.50;;
4676;SDS011;2352;48.180;11.478;2023-02-05T18:34:01;14.00;;;12.57;;
4676;SDS011;2352;48.180;11.478;2023-02-05T18:37:04;13.53;;;12.07;;
4676;SDS011;2352;48.180;11.478;2023-02-05T18:40:07;14.03;;;12.67;;
4676;SDS011;2352;48.180;11.478;2023-02-05T18:43:12;15.13;;;13.43;;
4676;SDS011;2352;48.180;11.478;2023-02-05T18:46:15;14.37;;;12.90;;
4676;SDS011;2352;48.180;11.478;2023-02-05T18:49:21;14.23;;;12.83;;
4676;SDS011;2352;48.180;11.478;2023-02-05T18:52:24;16.27;;;14.13;;
4676;SDS011;2352;48.180;11.478;2023-02-05T18:55:30;13.50;;;12.17;;
4676;SDS011;2352;48.180;11.478;2023-02-05T18:58:37;14.23;;;12.13;;
4676;SDS011;2352;48.180;11.478;2023-02-05T19:01:40;15.37;;;13.87;;
4676;SDS011;2352;48.180;11.478;2023-02-05T19:04:43;16.03;;;13.00;;
4676;SDS011;2352;48.180;11.478;2023-02-05T19:07:50;15.57;;;13.93;;
4676;SDS011;2352;48.180;11.478;2023-02-05T19:10:53;12.70;;;11.63;;
4676;SDS011;2352;48.180;11.478;2023-02-05T19:13:58;15.00;;;13.60;;
4676;SDS011;2352;48.180;11.478;2023-02-05T19:17:02;12.53;;;11.23;;